Terminal Aerodrome Forecast
Issued by NWS Sterling, VA

Current Version | Previous Version | Text Only | Print | Product List | Glossary Off
Versions: 1 2 3 4 5 6 7 8 9 10 11 12 13 14 15 16 17 18 19 20 21 22 23 24 25 26 27 28 29 30 31 32 33

623
FTUS41 KLWX 160837 AAA
TAFIAD
TAF AMD
KIAD 160837Z 1609/1712 00000KT 3SM BR SCT002
      TEMPO 1609/1612 1SM BR OVC002
     FM161300 34004KT P6SM SCT050 SCT250
     FM170600 00000KT P6SM SCT050
     FM170900 00000KT 6SM BR SCT080=

USA.gov is the U.S. government's official web portal to all federal, state and local government web resources and services.